Grand Pearl — 3EPV3 — position and weather

sailwx.info

Track history (hours):
 
Tides and Currents Weather Stations Pressure Air Temp Water Temp Dewpoint Dewpoint Depression Visibility Wind Speed Wind Dir Waves Ship Positions

Grand Pearl

Last reported at 2018-Jun-13 19:44 UTC. Time now 2018-Jun-19 15:56 UTC.
Position N 31°23' E 032°20'.

Length 199 m; draft 9.2 m.

Type: Cargo ship. MMSI: 371147000.

Date/timePositionNaut miles runAvg speedWind from/ knotsBaromVisibWave heightAir tempDewpointWater temp
2018-Jun-13 19:44N 31°23' E 032°20'0 0.0
2018-Jun-13 19:17N 31°23' E 032°20'0 0.0
2018-Jun-13 18:59N 31°23' E 032°20'  
2018-Jun-11 14:16N 35°58' E 015°52'519.1
2018-Jun-11 14:00N 35°60' E 015°46'3818.5
2018-Jun-11 11:59N 36°08' E 015°01'918.6
2018-Jun-11 11:30N 36°11' E 014°51'918.7
2018-Jun-11 11:00N 36°14' E 014°40'918.7
2018-Jun-11 10:31N 36°17' E 014°29'1018.6
2018-Jun-11 10:00N 36°20' E 014°18'918.8
2018-Jun-11 09:30N 36°23' E 014°07'918.7
2018-Jun-11 09:00N 36°27' E 013°56'1019.1
2018-Jun-11 08:30N 36°31' E 013°45'1118.7
2018-Jun-11 07:56N 36°35' E 013°33'818.7
2018-Jun-11 07:30N 36°37' E 013°24'1018.7
2018-Jun-11 07:00N 36°40' E 013°12'918.4
2018-Jun-11 06:30N 36°44' E 013°02'918.2
2018-Jun-11 06:00N 36°47' E 012°51'8818.4
2018-Jun-11 01:13N 37°23' E 011°10'41318.4
2018-Jun-10 02:45N 36°59' E 002°32'519.7
2018-Jun-10 02:29N 36°58' E 002°26'1020.1
2018-Jun-10 02:00N 36°56' E 002°14'11819.4
2018-Jun-09 19:55N 36°38' W 000°11'819.0
2018-Jun-09 19:30N 36°37' W 000°21'918.8
2018-Jun-09 19:00N 36°36' W 000°33'918.3
2018-Jun-09 18:30N 36°34' W 000°44'1518.4
2018-Jun-09 17:42N 36°31' W 001°02'818.8
2018-Jun-09 17:17N 36°30' W 001°12'519.0
2018-Jun-09 17:00N 36°29' W 001°18'919.2
2018-Jun-09 16:30N 36°27' W 001°30'18119.3
2018-Jun-09 07:07N 36°01' W 005°12'221.6
2018-Jun-09 07:01N 36°01' W 005°15'1121.3
2018-Jun-09 06:31N 35°57' W 005°27'24316.2
2018-Jun-08 15:28N 37°58' W 009°52'1518.5
2018-Jun-08 14:41N 38°12' W 009°55'318.3
2018-Jun-08 14:30N 38°15' W 009°56'918.7
2018-Jun-08 14:00N 38°24' W 010°00'918.7
2018-Jun-08 13:30N 38°33' W 010°04'918.4
2018-Jun-08 13:00N 38°42' W 010°06'918.8
2018-Jun-08 12:30N 38°51' W 010°06'1019.1
2018-Jun-08 12:00N 39°01' W 010°07'918.6
2018-Jun-08 11:30N 39°10' W 010°07'918.6
2018-Jun-08 11:00N 39°19' W 010°08'65717.3
2018-Jun-06 21:00N 49°28' W 004°23'2016.9
2018-Jun-06 19:47N 49°38' W 003°55'517.2
2018-Jun-06 19:30N 49°41' W 003°49'917.6
2018-Jun-06 18:59N 49°46' W 003°37'817.5
2018-Jun-06 18:30N 49°49' W 003°25'918.0
2018-Jun-06 18:00N 49°54' W 003°13'917.9
2018-Jun-06 17:30N 49°58' W 003°01'917.8
2018-Jun-06 17:00N 50°00' W 002°47'1317.7
2018-Jun-06 16:18N 50°03' W 002°28'517.3
2018-Jun-06 16:00N 50°04' W 002°21'917.1
2018-Jun-06 15:30N 50°07' W 002°08'816.5
2018-Jun-06 15:00N 50°09' W 001°56'816.0
2018-Jun-06 14:30N 50°11' W 001°44'815.8
2018-Jun-06 14:00N 50°14' W 001°32'815.4
2018-Jun-06 13:30N 50°16' W 001°20'815.3
2018-Jun-06 13:00N 50°18' W 001°09'815.5
2018-Jun-06 12:30N 50°20' W 000°57'816.0
2018-Jun-06 12:01N 50°21' W 000°45'816.2
2018-Jun-06 11:30N 50°23' W 000°32'816.7
2018-Jun-06 11:01N 50°24' W 000°19'815.4
2018-Jun-06 10:31N 50°28' W 000°09'917.7
2018-Jun-06 10:00N 50°30' E 000°05'918.0
2018-Jun-06 09:31N 50°33' E 000°18'918.3
2018-Jun-06 09:01N 50°36' E 000°31'918.3
2018-Jun-06 08:31N 50°41' E 000°44'918.2
2018-Jun-06 08:00N 50°45' E 000°57'917.8
2018-Jun-06 07:31N 50°50' E 001°09'917.1
2018-Jun-06 07:00N 50°55' E 001°19'816.8
2018-Jun-06 06:31N 51°02' E 001°28'816.0
2018-Jun-06 06:01N 51°07' E 001°37'815.6
2018-Jun-06 05:31N 51°13' E 001°45'816.0
2018-Jun-06 05:01N 51°20' E 001°51'816.5
2018-Jun-06 04:31N 51°28' E 001°57'917.1
2018-Jun-06 04:00N 51°34' E 002°06'917.3
2018-Jun-06 03:30N 51°40' E 002°15'917.5
2018-Jun-06 03:00N 51°47' E 002°25'918.1
2018-Jun-06 02:31N 51°54' E 002°33'918.3
2018-Jun-06 02:01N 52°01' E 002°44'918.5
2018-Jun-06 01:31N 52°08' E 002°54'918.5
2018-Jun-06 01:01N 52°16' E 003°02'918.5
2018-Jun-06 00:30N 52°23' E 003°11'918.2
2018-Jun-06 00:01N 52°30' E 003°20'917.8
2018-Jun-05 23:30N 52°37' E 003°29'917.4
2018-Jun-05 23:01N 52°44' E 003°37'917.0
2018-Jun-05 22:31N 52°51' E 003°46'816.8
2018-Jun-05 22:01N 52°57' E 003°55'816.4
2018-Jun-05 21:30N 53°02' E 004°07'816.3
2018-Jun-05 21:00N 53°07' E 004°17'816.0
2018-Jun-05 20:30N 53°13' E 004°26'816.3
2018-Jun-05 20:00N 53°20' E 004°33'816.5
2018-Jun-05 19:31N 53°28' E 004°39'917.3
2018-Jun-05 19:00N 53°31' E 004°52'917.8
2018-Jun-05 18:30N 53°34' E 005°06'918.1
2018-Jun-05 18:00N 53°37' E 005°20'918.1
2018-Jun-05 17:30N 53°40' E 005°35'918.0
2018-Jun-05 17:00N 53°43' E 005°49'917.8
2018-Jun-05 16:30N 53°46' E 006°04'917.4
2018-Jun-05 16:00N 53°48' E 006°18'917.1
2018-Jun-05 15:29N 53°51' E 006°32'916.8
2018-Jun-05 14:57N 53°53' E 006°47'716.3
2018-Jun-05 14:30N 53°55' E 006°59'916.1
2018-Jun-05 13:58N 53°57' E 007°13'1415.8
2018-Jun-05 13:06N 53°59' E 007°36'214.1
2018-Jun-05 12:56N 53°59' E 007°40'614.9
2018-Jun-05 12:30N 53°53' E 007°46'611.8
2018-Jun-05 12:00N 53°52' E 007°55'712.6
2018-Jun-05 11:28N 53°49' E 008°06'614.2
2018-Jun-05 11:00N 53°45' E 008°13'815.2
2018-Jun-05 10:30N 53°40' E 008°23'713.3
2018-Jun-05 10:00N 53°35' E 008°31'1 2.7
2018-Jun-05 09:30N 53°34' E 008°33'0 0.1
2018-Jun-05 09:00N 53°34' E 008°33'0 0.6
2018-Jun-05 08:29N 53°35' E 008°33'0 0.0
2018-Jun-05 07:59N 53°35' E 008°33'0 0.0
2018-Jun-05 07:29N 53°35' E 008°33'0 0.0
2018-Jun-05 06:59N 53°35' E 008°33'0 0.0
2018-Jun-05 06:29N 53°35' E 008°33'0 0.0
2018-Jun-05 05:56N 53°35' E 008°33'0 0.0
2018-Jun-05 05:26N 53°35' E 008°33'0 0.0
2018-Jun-05 04:59N 53°35' E 008°33'0 0.0
2018-Jun-05 04:29N 53°35' E 008°33'0 0.0
2018-Jun-05 03:59N 53°35' E 008°33'0 0.0
2018-Jun-05 03:29N 53°35' E 008°33'0 0.0
2018-Jun-05 02:59N 53°35' E 008°33'0 0.0
2018-Jun-05 02:26N 53°35' E 008°33'0 0.0
2018-Jun-05 01:59N 53°35' E 008°33'0 0.0
2018-Jun-05 01:29N 53°35' E 008°33'0 0.0
2018-Jun-05 00:59N 53°35' E 008°33'0 0.0
2018-Jun-05 00:26N 53°35' E 008°33'0 0.0
2018-Jun-04 23:59N 53°35' E 008°33'0 0.0
2018-Jun-04 23:29N 53°35' E 008°33'0 0.0
2018-Jun-04 22:59N 53°35' E 008°33'0 0.0
2018-Jun-04 22:29N 53°35' E 008°33'0 0.0
2018-Jun-04 21:59N 53°35' E 008°33'0 0.0
2018-Jun-04 21:29N 53°35' E 008°33'0 0.0
2018-Jun-04 20:59N 53°35' E 008°33'0 0.0
2018-Jun-04 20:29N 53°35' E 008°33'0 0.0
2018-Jun-04 19:59N 53°35' E 008°33'0 0.0
2018-Jun-04 19:29N 53°35' E 008°33'0 0.0
2018-Jun-04 18:59N 53°35' E 008°33'0 0.0
2018-Jun-04 18:29N 53°35' E 008°33'0 0.0
2018-Jun-04 17:59N 53°35' E 008°33'0 0.0
2018-Jun-04 17:29N 53°35' E 008°33'0 0.0
2018-Jun-04 16:59N 53°35' E 008°33'0 0.0
2018-Jun-04 16:29N 53°35' E 008°33'0 0.0
2018-Jun-04 15:59N 53°35' E 008°33'0 0.0
2018-Jun-04 15:29N 53°35' E 008°33'0 0.0
2018-Jun-04 14:59N 53°35' E 008°33'0 0.0
2018-Jun-04 14:29N 53°35' E 008°33'0 0.0
2018-Jun-04 13:59N 53°35' E 008°33'0 0.0
2018-Jun-04 13:29N 53°35' E 008°33'0 0.0
2018-Jun-04 12:59N 53°35' E 008°33'0 0.0
2018-Jun-04 12:29N 53°35' E 008°33'0 0.0
2018-Jun-04 11:59N 53°35' E 008°33'0 0.0
2018-Jun-04 11:26N 53°35' E 008°33'0 0.0
2018-Jun-04 10:59N 53°35' E 008°33'0 0.0
2018-Jun-04 10:29N 53°35' E 008°33'0 0.0
2018-Jun-04 09:59N 53°35' E 008°33'0 0.0
2018-Jun-04 09:29N 53°35' E 008°33'0 0.0
2018-Jun-04 08:59N 53°35' E 008°33'0 0.0
2018-Jun-04 08:29N 53°35' E 008°33'0 0.0
2018-Jun-04 07:59N 53°35' E 008°33'0 0.0
2018-Jun-04 07:29N 53°35' E 008°33'0 0.0
2018-Jun-04 06:59N 53°35' E 008°33'0 0.0
2018-Jun-04 06:29N 53°35' E 008°33'0 0.0
2018-Jun-04 05:59N 53°35' E 008°33'0 0.0
2018-Jun-04 05:29N 53°35' E 008°33'0 0.0
2018-Jun-04 04:59N 53°35' E 008°33'0 0.0
2018-Jun-04 04:29N 53°35' E 008°33'0 0.0
2018-Jun-04 03:59N 53°35' E 008°33'0 0.0
2018-Jun-04 03:29N 53°35' E 008°33'0 0.0
2018-Jun-04 02:59N 53°35' E 008°33'0 0.0
2018-Jun-04 02:29N 53°35' E 008°33'0 0.0
2018-Jun-04 01:59N 53°35' E 008°33'0 0.0
2018-Jun-04 01:29N 53°35' E 008°33'0 0.0
2018-Jun-04 00:59N 53°35' E 008°33'0 0.0
2018-Jun-04 00:29N 53°35' E 008°33'0 0.0
2018-Jun-03 23:59N 53°35' E 008°33'0 0.0
2018-Jun-03 23:29N 53°35' E 008°33'0 0.0
2018-Jun-03 22:59N 53°35' E 008°33'0 0.0
2018-Jun-03 22:29N 53°35' E 008°33'0 0.0
2018-Jun-03 21:59N 53°35' E 008°33'0 0.0
2018-Jun-03 21:29N 53°35' E 008°33'0 0.0
2018-Jun-03 20:59N 53°35' E 008°33'0 0.0
2018-Jun-03 20:29N 53°35' E 008°33'0 0.0
2018-Jun-03 19:59N 53°35' E 008°33'  
Track history (hours):
 
Tides and Currents Weather Stations Pressure Air Temp Water Temp Dewpoint Dewpoint Depression Visibility Wind Speed Wind Dir Waves Ship Positions

Grand Pearl

Last reported at 2018-Jun-13 19:44 UTC. Time now 2018-Jun-19 15:56 UTC.
Position N 31°23' E 032°20'.

Length 199 m; draft 9.2 m.

Type: Cargo ship. MMSI: 371147000.

Date/timePositionNaut miles runAvg speedWind from/ knotsBaromVisibWave heightAir tempDewpointWater temp
2018-Jun-13 19:44N 31°23' E 032°20'0 0.0
2018-Jun-13 19:17N 31°23' E 032°20'0 0.0
2018-Jun-13 18:59N 31°23' E 032°20'  
2018-Jun-11 14:16N 35°58' E 015°52'519.1
2018-Jun-11 14:00N 35°60' E 015°46'3818.5
2018-Jun-11 11:59N 36°08' E 015°01'918.6
2018-Jun-11 11:30N 36°11' E 014°51'918.7
2018-Jun-11 11:00N 36°14' E 014°40'918.7
2018-Jun-11 10:31N 36°17' E 014°29'1018.6
2018-Jun-11 10:00N 36°20' E 014°18'918.8
2018-Jun-11 09:30N 36°23' E 014°07'918.7
2018-Jun-11 09:00N 36°27' E 013°56'1019.1
2018-Jun-11 08:30N 36°31' E 013°45'1118.7
2018-Jun-11 07:56N 36°35' E 013°33'818.7
2018-Jun-11 07:30N 36°37' E 013°24'1018.7
2018-Jun-11 07:00N 36°40' E 013°12'918.4
2018-Jun-11 06:30N 36°44' E 013°02'918.2
2018-Jun-11 06:00N 36°47' E 012°51'8818.4
2018-Jun-11 01:13N 37°23' E 011°10'41318.4
2018-Jun-10 02:45N 36°59' E 002°32'519.7
2018-Jun-10 02:29N 36°58' E 002°26'1020.1
2018-Jun-10 02:00N 36°56' E 002°14'11819.4
2018-Jun-09 19:55N 36°38' W 000°11'819.0
2018-Jun-09 19:30N 36°37' W 000°21'918.8
2018-Jun-09 19:00N 36°36' W 000°33'918.3
2018-Jun-09 18:30N 36°34' W 000°44'1518.4
2018-Jun-09 17:42N 36°31' W 001°02'818.8
2018-Jun-09 17:17N 36°30' W 001°12'519.0
2018-Jun-09 17:00N 36°29' W 001°18'919.2
2018-Jun-09 16:30N 36°27' W 001°30'18119.3
2018-Jun-09 07:07N 36°01' W 005°12'221.6
2018-Jun-09 07:01N 36°01' W 005°15'1121.3
2018-Jun-09 06:31N 35°57' W 005°27'24316.2
2018-Jun-08 15:28N 37°58' W 009°52'1518.5
2018-Jun-08 14:41N 38°12' W 009°55'318.3
2018-Jun-08 14:30N 38°15' W 009°56'918.7
2018-Jun-08 14:00N 38°24' W 010°00'918.7
2018-Jun-08 13:30N 38°33' W 010°04'918.4
2018-Jun-08 13:00N 38°42' W 010°06'918.8
2018-Jun-08 12:30N 38°51' W 010°06'1019.1
2018-Jun-08 12:00N 39°01' W 010°07'918.6
2018-Jun-08 11:30N 39°10' W 010°07'918.6
2018-Jun-08 11:00N 39°19' W 010°08'65717.3
2018-Jun-06 21:00N 49°28' W 004°23'2016.9
2018-Jun-06 19:47N 49°38' W 003°55'517.2
2018-Jun-06 19:30N 49°41' W 003°49'917.6
2018-Jun-06 18:59N 49°46' W 003°37'817.5
2018-Jun-06 18:30N 49°49' W 003°25'918.0
2018-Jun-06 18:00N 49°54' W 003°13'917.9
2018-Jun-06 17:30N 49°58' W 003°01'917.8
2018-Jun-06 17:00N 50°00' W 002°47'1317.7
2018-Jun-06 16:18N 50°03' W 002°28'517.3
2018-Jun-06 16:00N 50°04' W 002°21'917.1
2018-Jun-06 15:30N 50°07' W 002°08'816.5
2018-Jun-06 15:00N 50°09' W 001°56'816.0
2018-Jun-06 14:30N 50°11' W 001°44'815.8
2018-Jun-06 14:00N 50°14' W 001°32'815.4
2018-Jun-06 13:30N 50°16' W 001°20'815.3
2018-Jun-06 13:00N 50°18' W 001°09'815.5
2018-Jun-06 12:30N 50°20' W 000°57'816.0
2018-Jun-06 12:01N 50°21' W 000°45'816.2
2018-Jun-06 11:30N 50°23' W 000°32'816.7
2018-Jun-06 11:01N 50°24' W 000°19'815.4
2018-Jun-06 10:31N 50°28' W 000°09'917.7
2018-Jun-06 10:00N 50°30' E 000°05'918.0
2018-Jun-06 09:31N 50°33' E 000°18'918.3
2018-Jun-06 09:01N 50°36' E 000°31'918.3
2018-Jun-06 08:31N 50°41' E 000°44'918.2
2018-Jun-06 08:00N 50°45' E 000°57'917.8
2018-Jun-06 07:31N 50°50' E 001°09'917.1
2018-Jun-06 07:00N 50°55' E 001°19'816.8
2018-Jun-06 06:31N 51°02' E 001°28'816.0
2018-Jun-06 06:01N 51°07' E 001°37'815.6
2018-Jun-06 05:31N 51°13' E 001°45'816.0
2018-Jun-06 05:01N 51°20' E 001°51'816.5
2018-Jun-06 04:31N 51°28' E 001°57'917.1
2018-Jun-06 04:00N 51°34' E 002°06'917.3
2018-Jun-06 03:30N 51°40' E 002°15'917.5
2018-Jun-06 03:00N 51°47' E 002°25'918.1
2018-Jun-06 02:31N 51°54' E 002°33'918.3
2018-Jun-06 02:01N 52°01' E 002°44'918.5
2018-Jun-06 01:31N 52°08' E 002°54'918.5
2018-Jun-06 01:01N 52°16' E 003°02'918.5
2018-Jun-06 00:30N 52°23' E 003°11'918.2
2018-Jun-06 00:01N 52°30' E 003°20'917.8
2018-Jun-05 23:30N 52°37' E 003°29'917.4
2018-Jun-05 23:01N 52°44' E 003°37'917.0
2018-Jun-05 22:31N 52°51' E 003°46'816.8
2018-Jun-05 22:01N 52°57' E 003°55'816.4
2018-Jun-05 21:30N 53°02' E 004°07'816.3
2018-Jun-05 21:00N 53°07' E 004°17'816.0
2018-Jun-05 20:30N 53°13' E 004°26'816.3
2018-Jun-05 20:00N 53°20' E 004°33'816.5
2018-Jun-05 19:31N 53°28' E 004°39'917.3
2018-Jun-05 19:00N 53°31' E 004°52'917.8
2018-Jun-05 18:30N 53°34' E 005°06'918.1
2018-Jun-05 18:00N 53°37' E 005°20'918.1
2018-Jun-05 17:30N 53°40' E 005°35'918.0
2018-Jun-05 17:00N 53°43' E 005°49'917.8
2018-Jun-05 16:30N 53°46' E 006°04'917.4
2018-Jun-05 16:00N 53°48' E 006°18'917.1
2018-Jun-05 15:29N 53°51' E 006°32'916.8
2018-Jun-05 14:57N 53°53' E 006°47'716.3
2018-Jun-05 14:30N 53°55' E 006°59'916.1
2018-Jun-05 13:58N 53°57' E 007°13'1415.8
2018-Jun-05 13:06N 53°59' E 007°36'214.1
2018-Jun-05 12:56N 53°59' E 007°40'614.9
2018-Jun-05 12:30N 53°53' E 007°46'611.8
2018-Jun-05 12:00N 53°52' E 007°55'712.6
2018-Jun-05 11:28N 53°49' E 008°06'614.2
2018-Jun-05 11:00N 53°45' E 008°13'815.2
2018-Jun-05 10:30N 53°40' E 008°23'713.3
2018-Jun-05 10:00N 53°35' E 008°31'1 2.7
2018-Jun-05 09:30N 53°34' E 008°33'0 0.1
2018-Jun-05 09:00N 53°34' E 008°33'0 0.6
2018-Jun-05 08:29N 53°35' E 008°33'0 0.0
2018-Jun-05 07:59N 53°35' E 008°33'0 0.0
2018-Jun-05 07:29N 53°35' E 008°33'0 0.0
2018-Jun-05 06:59N 53°35' E 008°33'0 0.0
2018-Jun-05 06:29N 53°35' E 008°33'0 0.0
2018-Jun-05 05:56N 53°35' E 008°33'0 0.0
2018-Jun-05 05:26N 53°35' E 008°33'0 0.0
2018-Jun-05 04:59N 53°35' E 008°33'0 0.0
2018-Jun-05 04:29N 53°35' E 008°33'0 0.0
2018-Jun-05 03:59N 53°35' E 008°33'0 0.0
2018-Jun-05 03:29N 53°35' E 008°33'0 0.0
2018-Jun-05 02:59N 53°35' E 008°33'0 0.0
2018-Jun-05 02:26N 53°35' E 008°33'0 0.0
2018-Jun-05 01:59N 53°35' E 008°33'0 0.0
2018-Jun-05 01:29N 53°35' E 008°33'0 0.0
2018-Jun-05 00:59N 53°35' E 008°33'0 0.0
2018-Jun-05 00:26N 53°35' E 008°33'0 0.0
2018-Jun-04 23:59N 53°35' E 008°33'0 0.0
2018-Jun-04 23:29N 53°35' E 008°33'0 0.0
2018-Jun-04 22:59N 53°35' E 008°33'0 0.0
2018-Jun-04 22:29N 53°35' E 008°33'0 0.0
2018-Jun-04 21:59N 53°35' E 008°33'0 0.0
2018-Jun-04 21:29N 53°35' E 008°33'0 0.0
2018-Jun-04 20:59N 53°35' E 008°33'0 0.0
2018-Jun-04 20:29N 53°35' E 008°33'0 0.0
2018-Jun-04 19:59N 53°35' E 008°33'0 0.0
2018-Jun-04 19:29N 53°35' E 008°33'0 0.0
2018-Jun-04 18:59N 53°35' E 008°33'0 0.0
2018-Jun-04 18:29N 53°35' E 008°33'0 0.0
2018-Jun-04 17:59N 53°35' E 008°33'0 0.0
2018-Jun-04 17:29N 53°35' E 008°33'0 0.0
2018-Jun-04 16:59N 53°35' E 008°33'0 0.0
2018-Jun-04 16:29N 53°35' E 008°33'0 0.0
2018-Jun-04 15:59N 53°35' E 008°33'0 0.0
2018-Jun-04 15:29N 53°35' E 008°33'0 0.0
2018-Jun-04 14:59N 53°35' E 008°33'0 0.0
2018-Jun-04 14:29N 53°35' E 008°33'0 0.0
2018-Jun-04 13:59N 53°35' E 008°33'0 0.0
2018-Jun-04 13:29N 53°35' E 008°33'0 0.0
2018-Jun-04 12:59N 53°35' E 008°33'0 0.0
2018-Jun-04 12:29N 53°35' E 008°33'0 0.0
2018-Jun-04 11:59N 53°35' E 008°33'0 0.0
2018-Jun-04 11:26N 53°35' E 008°33'0 0.0
2018-Jun-04 10:59N 53°35' E 008°33'0 0.0
2018-Jun-04 10:29N 53°35' E 008°33'0 0.0
2018-Jun-04 09:59N 53°35' E 008°33'0 0.0
2018-Jun-04 09:29N 53°35' E 008°33'0 0.0
2018-Jun-04 08:59N 53°35' E 008°33'0 0.0
2018-Jun-04 08:29N 53°35' E 008°33'0 0.0
2018-Jun-04 07:59N 53°35' E 008°33'0 0.0
2018-Jun-04 07:29N 53°35' E 008°33'0 0.0
2018-Jun-04 06:59N 53°35' E 008°33'0 0.0
2018-Jun-04 06:29N 53°35' E 008°33'0 0.0
2018-Jun-04 05:59N 53°35' E 008°33'0 0.0
2018-Jun-04 05:29N 53°35' E 008°33'0 0.0
2018-Jun-04 04:59N 53°35' E 008°33'0 0.0
2018-Jun-04 04:29N 53°35' E 008°33'0 0.0
2018-Jun-04 03:59N 53°35' E 008°33'0 0.0
2018-Jun-04 03:29N 53°35' E 008°33'0 0.0
2018-Jun-04 02:59N 53°35' E 008°33'0 0.0
2018-Jun-04 02:29N 53°35' E 008°33'0 0.0
2018-Jun-04 01:59N 53°35' E 008°33'0 0.0
2018-Jun-04 01:29N 53°35' E 008°33'0 0.0
2018-Jun-04 00:59N 53°35' E 008°33'0 0.0
2018-Jun-04 00:29N 53°35' E 008°33'0 0.0
2018-Jun-03 23:59N 53°35' E 008°33'0 0.0
2018-Jun-03 23:29N 53°35' E 008°33'0 0.0
2018-Jun-03 22:59N 53°35' E 008°33'0 0.0
2018-Jun-03 22:29N 53°35' E 008°33'0 0.0
2018-Jun-03 21:59N 53°35' E 008°33'0 0.0
2018-Jun-03 21:29N 53°35' E 008°33'0 0.0
2018-Jun-03 20:59N 53°35' E 008°33'0 0.0
2018-Jun-03 20:29N 53°35' E 008°33'0 0.0
2018-Jun-03 19:59N 53°35' E 008°33'  

Dump ship's entire track history